KMEZ

Mena Intermountain Municipal Airport

Mena, Arkansas, USA
METAR KMEZ 261315Z AUTO 00000KT 10SM CLR 23/22 A2989 RMK AO2
Observed Flight Rules
May-26 @ 13:15 UTC (22 minutes ago) Visual Flight Rules
Visibility Clouds
10 miles
  • Clear skies
Temperatures Readings
Current 23°C / 73°F
Dewpoint 22°C / 72°F
Humidity 94%
Altimeter 29.89" Hg
Pressure 1012 hPa
Elevation 329
METAR KMEZ 261315Z AUTO 00000KT 10SM CLR 23/22 A2989 RMK AO2
Observed Flight Rules
May-26 @ 13:15 UTC
(22 minutes ago)
VFR
Clouds
  • Clear skies
Temperature Dewpoint
23°C / 73°F 22°C / 72°F
Humidity Altimeter Pressure
94% 29.89" Hg 1012 hPa